Arctic Fury — WDE9335 — position and weather

sailwx.info

Track history (hours):
 
Tides and Currents Weather Stations Pressure Air Temp Water Temp Dewpoint Dewpoint Depression Visibility Wind Speed Wind Dir Waves Ship Positions

Arctic Fury

Owner: Fury Group Inc, Seattle, WA. More information available from US FCC via Universal Licensing System and Coast Guard Vessel Documentation Center.

Last reported at 2018-May-28 00:03 UTC. Time now 2018-May-28 01:40 UTC.
Position N 46°54' W 124°06'.

Length 43 m; draft 5 m.

Type: Fishing. MMSI: 366468000.

Date/timePositionNaut miles runAvg speedWind from/ knotsBaromVisibWave heightAir tempDewpointWater temp
2018-May-28 00:03N 46°54' W 124°06'0 0.1
2018-May-27 23:57N 46°54' W 124°06'0 0.1
2018-May-27 23:23N 46°54' W 124°06'0 0.0
2018-May-27 21:53N 46°54' W 124°06'0 0.0
2018-May-27 21:20N 46°54' W 124°06'0 0.0
2018-May-27 20:58N 46°54' W 124°06'0 0.0
2018-May-27 20:29N 46°54' W 124°06'0 0.0
2018-May-27 19:15N 46°54' W 124°06'0 0.0
2018-May-27 18:57N 46°54' W 124°06'0 0.0
2018-May-27 18:24N 46°54' W 124°06'0 0.0
2018-May-27 17:59N 46°54' W 124°06'0 0.0
2018-May-27 17:28N 46°54' W 124°06'0 0.0
2018-May-27 07:33N 46°54' W 124°06'0 1.5
2018-May-27 07:21N 46°54' W 124°06'3 6.2
2018-May-27 06:54N 46°55' W 124°10'4 9.5
2018-May-27 06:31N 46°56' W 124°15'510.2
2018-May-27 05:59N 47°00' W 124°20'17 0.9
2018-May-26 11:22N 47°01' W 124°45'3 6.3
2018-May-26 10:54N 47°00' W 124°40'2 6.1
2018-May-26 10:30N 46°59' W 124°37'3 6.3
2018-May-26 09:59N 46°58' W 124°33'3 6.2
2018-May-26 09:30N 46°57' W 124°28'3 6.2
2018-May-26 09:00N 46°56' W 124°24'3 6.8
2018-May-26 08:30N 46°55' W 124°20'4 8.0
2018-May-26 08:00N 46°54' W 124°14'5 9.6
2018-May-26 07:30N 46°55' W 124°07'0 0.2
2018-May-26 04:49N 46°54' W 124°06'0 0.0
2018-May-26 04:29N 46°54' W 124°06'0 0.0
2018-May-26 02:40N 46°54' W 124°06'0 0.0
2018-May-26 00:13N 46°54' W 124°06'3 5.0
2018-May-25 23:39N 46°55' W 124°11'1 9.2
2018-May-25 23:30N 46°55' W 124°12'5 9.6
2018-May-25 23:00N 46°55' W 124°20'510.0
2018-May-25 22:30N 46°57' W 124°27'510.3
2018-May-25 22:00N 46°58' W 124°34'510.2
2018-May-25 21:31N 46°60' W 124°41'18 1.5
2018-May-25 09:01N 47°13' W 124°59'0 2.3
2018-May-25 09:01N 47°13' W 124°59'1 1.1
2018-May-25 08:09N 47°14' W 124°59'0 1.0
2018-May-25 07:58N 47°14' W 124°59'19 3.2
2018-May-25 01:57N 46°55' W 124°59'7 9.2
2018-May-25 01:14N 46°49' W 124°55'2 9.3
2018-May-25 01:00N 46°47' W 124°54'5 9.4
2018-May-25 00:31N 46°43' W 124°50'6 9.4
2018-May-24 23:53N 46°38' W 124°46'3 7.5
2018-May-24 23:30N 46°35' W 124°44'1 1.5
2018-May-24 23:00N 46°36' W 124°44'1 2.2
2018-May-24 22:31N 46°37' W 124°44'2 3.4
2018-May-24 21:51N 46°39' W 124°46'1 3.3
2018-May-24 21:30N 46°39' W 124°47'2 3.5
2018-May-24 21:01N 46°41' W 124°48'2 3.4
2018-May-24 20:31N 46°42' W 124°50'3 3.8
2018-May-24 19:50N 46°44' W 124°52'1 2.5
2018-May-24 19:31N 46°44' W 124°51'1 2.3
2018-May-24 19:00N 46°43' W 124°51'1 3.0
2018-May-24 18:31N 46°42' W 124°50'1 3.0
2018-May-24 18:00N 46°41' W 124°48'2 3.1
2018-May-24 17:22N 46°39' W 124°47'1 3.1
2018-May-24 17:00N 46°39' W 124°45'2 3.4
2018-May-24 16:30N 46°37' W 124°44'3 6.1
2018-May-24 15:56N 46°40' W 124°47'3 6.2
2018-May-24 15:30N 46°42' W 124°44'6 9.7
2018-May-24 14:50N 46°43' W 124°35'310.1
2018-May-24 14:30N 46°45' W 124°32'5 9.9
2018-May-24 14:01N 46°48' W 124°26'510.1
2018-May-24 13:31N 46°51' W 124°20'10 0.8
2018-May-24 00:32N 46°55' W 124°06'3 8.5
2018-May-24 00:13N 46°55' W 124°10'2 8.7
2018-May-24 00:00N 46°55' W 124°13'5 9.6
2018-May-23 23:30N 46°55' W 124°20'4 7.9
2018-May-23 23:00N 46°56' W 124°26'510.3
2018-May-23 22:30N 46°57' W 124°33'5 9.4
2018-May-23 22:00N 46°58' W 124°40'5 9.6
2018-May-23 21:30N 46°59' W 124°47'610.1
2018-May-23 20:56N 47°00' W 124°55'4 4.9
2018-May-23 20:12N 47°02' W 124°60'1 1.9
2018-May-23 19:51N 47°02' W 124°60'2 1.2
2018-May-23 17:51N 46°60' W 125°01'2 3.5
2018-May-23 17:12N 46°58' W 125°00'1 2.9
2018-May-23 17:00N 46°57' W 124°60'3 1.2
2018-May-23 14:32N 47°00' W 125°00'0 3.4
2018-May-23 14:30N 46°60' W 125°00'2 3.1
2018-May-23 14:00N 46°58' W 125°00'1 2.0
2018-May-23 13:30N 46°57' W 125°00'3 1.1
2018-May-23 11:06N 46°60' W 125°01'0 4.0
2018-May-23 11:00N 46°60' W 125°01'1 2.0
2018-May-23 10:19N 46°58' W 125°00'1 1.1
2018-May-23 09:46N 46°59' W 125°00'0 1.1
2018-May-23 09:30N 46°59' W 125°00'1 1.0
2018-May-23 08:57N 46°60' W 125°01'0 0.6
2018-May-23 08:06N 47°00' W 125°00'1 8.2
2018-May-23 08:00N 46°60' W 124°59'4 8.2
2018-May-23 07:30N 46°58' W 124°53'4 8.1
2018-May-23 06:59N 46°57' W 124°48'4 8.0
2018-May-23 06:30N 46°55' W 124°42'4 7.9
2018-May-23 06:01N 46°54' W 124°37'5 8.0
2018-May-23 05:21N 46°52' W 124°30'3 7.8
2018-May-23 05:00N 46°51' W 124°27'4 7.4
2018-May-23 04:29N 46°50' W 124°21'4 9.3
2018-May-23 04:00N 46°53' W 124°18'4 7.6
2018-May-23 03:30N 46°55' W 124°12'4 6.7
2018-May-23 02:54N 46°55' W 124°06'0 0.6
2018-May-23 02:11N 46°54' W 124°06'0 0.0
2018-May-23 02:00N 46°54' W 124°06'0 0.0
2018-May-23 01:30N 46°54' W 124°06'0 0.0
2018-May-23 01:00N 46°54' W 124°06'0 0.0
2018-May-23 00:28N 46°54' W 124°06'0 0.0
2018-May-22 23:46N 46°54' W 124°06'0 0.0
2018-May-22 22:48N 46°54' W 124°06'0 0.0
2018-May-22 22:26N 46°54' W 124°06'0 0.0
2018-May-22 22:00N 46°54' W 124°06'0 0.0
2018-May-22 21:30N 46°54' W 124°06'0 0.0
2018-May-22 20:59N 46°54' W 124°06'0 0.0
2018-May-22 19:23N 46°54' W 124°06'1 2.6
2018-May-22 18:54N 46°55' W 124°08'3 7.7
2018-May-22 18:30N 46°55' W 124°13'5 8.5
2018-May-22 17:55N 46°54' W 124°20'4 9.6
2018-May-22 17:29N 46°53' W 124°26'510.0
2018-May-22 17:01N 46°53' W 124°33'5 9.9
2018-May-22 16:30N 46°52' W 124°40'510.0
2018-May-22 16:00N 46°51' W 124°48'610.1
2018-May-22 15:24N 46°50' W 124°56'1 1.9
2018-May-22 15:00N 46°51' W 124°56'1 2.5
2018-May-22 14:30N 46°52' W 124°56'2 3.3
2018-May-22 14:00N 46°54' W 124°54'3 3.7
2018-May-22 13:14N 46°55' W 124°51'2 6.3
2018-May-22 12:52N 46°54' W 124°54'3 7.6
2018-May-22 12:30N 46°53' W 124°58'4 8.2
2018-May-22 11:58N 46°57' W 124°59'2 5.2
2018-May-22 11:30N 46°55' W 124°58'5 5.2
2018-May-22 10:36N 46°59' W 124°59'1 6.7
2018-May-22 10:30N 46°60' W 124°59'3 6.2
2018-May-22 10:00N 47°03' W 124°59'3 6.5
2018-May-22 09:30N 47°06' W 125°00'11 6.7
2018-May-22 07:50N 47°17' W 125°03'2 6.6
2018-May-22 07:30N 47°19' W 125°04'61 3.1
2018-May-21 11:38N 48°20' W 124°54'110.3
2018-May-21 11:30N 48°21' W 124°52'510.3
2018-May-21 11:00N 48°24' W 124°47'5 9.6
2018-May-21 10:30N 48°24' W 124°39'1 2.0
2018-May-21 10:00N 48°25' W 124°41'4 7.9
2018-May-21 09:30N 48°24' W 124°47'510.1
2018-May-21 08:57N 48°19' W 124°51'80 2.7
2018-May-20 03:34N 46°59' W 124°59'2 8.6
2018-May-20 03:21N 46°58' W 124°59'3 8.2
2018-May-20 02:57N 46°54' W 124°58'3 6.8
2018-May-20 02:30N 46°51' W 124°57'2 3.5
2018-May-20 01:57N 46°49' W 124°57'2 3.8
2018-May-20 01:31N 46°48' W 124°56'1 2.1
2018-May-20 01:01N 46°47' W 124°55'1 2.6
2018-May-20 00:30N 46°46' W 124°53'1 2.7
2018-May-20 00:00N 46°45' W 124°52'1 2.5
2018-May-19 23:31N 46°46' W 124°52'1 1.1
2018-May-19 23:01N 46°46' W 124°53'2 3.2
2018-May-19 22:31N 46°45' W 124°51'2 3.2
2018-May-19 22:00N 46°44' W 124°49'2 3.8
2018-May-19 21:30N 46°42' W 124°48'2 4.6
2018-May-19 21:00N 46°40' W 124°46'4 7.3
2018-May-19 20:30N 46°38' W 124°43'0 0.8
2018-May-19 20:01N 46°38' W 124°43'0 0.7
2018-May-19 19:30N 46°37' W 124°43'0 0.7
2018-May-19 18:50N 46°38' W 124°44'0 0.6
2018-May-19 18:30N 46°38' W 124°44'1 1.5
2018-May-19 18:01N 46°38' W 124°45'0 0.9
2018-May-19 17:30N 46°38' W 124°45'2 3.9
2018-May-19 17:00N 46°40' W 124°47'2 3.3
2018-May-19 16:30N 46°39' W 124°45'2 4.0
2018-May-19 16:00N 46°38' W 124°42'3 4.7
2018-May-19 15:24N 46°39' W 124°46'2 4.9
2018-May-19 15:00N 46°41' W 124°48'3 6.1
2018-May-19 14:30N 46°43' W 124°50'2 4.0
2018-May-19 14:00N 46°42' W 124°48'3 5.6
2018-May-19 13:30N 46°39' W 124°47'2 4.2
2018-May-19 13:00N 46°37' W 124°45'2 3.3
2018-May-19 12:30N 46°36' W 124°44'1 2.1
2018-May-19 12:00N 46°35' W 124°45'1 2.5
2018-May-19 11:30N 46°34' W 124°46'1 1.2
2018-May-19 11:00N 46°35' W 124°46'1 1.1
2018-May-19 10:31N 46°35' W 124°45'1 1.1
2018-May-19 10:00N 46°36' W 124°45'1 1.2
2018-May-19 09:31N 46°36' W 124°45'1 1.1
2018-May-19 09:00N 46°37' W 124°45'1 1.1
2018-May-19 08:31N 46°37' W 124°45'1 1.1
2018-May-19 08:01N 46°38' W 124°45'1 1.0
2018-May-19 07:30N 46°39' W 124°45'5 7.1
2018-May-19 06:50N 46°34' W 124°45'1 3.3
2018-May-19 06:30N 46°33' W 124°44'2 3.1
2018-May-19 06:00N 46°31' W 124°43'1 1.3
2018-May-19 05:30N 46°31' W 124°43'1 2.9
2018-May-19 05:00N 46°29' W 124°43'1 2.3
2018-May-19 04:30N 46°30' W 124°43'2 3.1
2018-May-19 03:44N 46°33' W 124°44'1 3.1
2018-May-19 03:31N 46°34' W 124°44'2 3.1
2018-May-19 03:00N 46°35' W 124°45'2 3.1
2018-May-19 02:31N 46°37' W 124°45'2 3.2
2018-May-19 01:52N 46°38' W 124°46'2 2.9
2018-May-19 01:12N 46°40' W 124°47'1 3.1
2018-May-19 01:00N 46°41' W 124°48'  
Track history (hours):
 
Tides and Currents Weather Stations Pressure Air Temp Water Temp Dewpoint Dewpoint Depression Visibility Wind Speed Wind Dir Waves Ship Positions

Arctic Fury

Owner: Fury Group Inc, Seattle, WA. More information available from US FCC via Universal Licensing System and Coast Guard Vessel Documentation Center.

Last reported at 2018-May-28 00:03 UTC. Time now 2018-May-28 01:40 UTC.
Position N 46°54' W 124°06'.

Length 43 m; draft 5 m.

Type: Fishing. MMSI: 366468000.

Date/timePositionNaut miles runAvg speedWind from/ knotsBaromVisibWave heightAir tempDewpointWater temp
2018-May-28 00:03N 46°54' W 124°06'0 0.1
2018-May-27 23:57N 46°54' W 124°06'0 0.1
2018-May-27 23:23N 46°54' W 124°06'0 0.0
2018-May-27 21:53N 46°54' W 124°06'0 0.0
2018-May-27 21:20N 46°54' W 124°06'0 0.0
2018-May-27 20:58N 46°54' W 124°06'0 0.0
2018-May-27 20:29N 46°54' W 124°06'0 0.0
2018-May-27 19:15N 46°54' W 124°06'0 0.0
2018-May-27 18:57N 46°54' W 124°06'0 0.0
2018-May-27 18:24N 46°54' W 124°06'0 0.0
2018-May-27 17:59N 46°54' W 124°06'0 0.0
2018-May-27 17:28N 46°54' W 124°06'0 0.0
2018-May-27 07:33N 46°54' W 124°06'0 1.5
2018-May-27 07:21N 46°54' W 124°06'3 6.2
2018-May-27 06:54N 46°55' W 124°10'4 9.5
2018-May-27 06:31N 46°56' W 124°15'510.2
2018-May-27 05:59N 47°00' W 124°20'17 0.9
2018-May-26 11:22N 47°01' W 124°45'3 6.3
2018-May-26 10:54N 47°00' W 124°40'2 6.1
2018-May-26 10:30N 46°59' W 124°37'3 6.3
2018-May-26 09:59N 46°58' W 124°33'3 6.2
2018-May-26 09:30N 46°57' W 124°28'3 6.2
2018-May-26 09:00N 46°56' W 124°24'3 6.8
2018-May-26 08:30N 46°55' W 124°20'4 8.0
2018-May-26 08:00N 46°54' W 124°14'5 9.6
2018-May-26 07:30N 46°55' W 124°07'0 0.2
2018-May-26 04:49N 46°54' W 124°06'0 0.0
2018-May-26 04:29N 46°54' W 124°06'0 0.0
2018-May-26 02:40N 46°54' W 124°06'0 0.0
2018-May-26 00:13N 46°54' W 124°06'3 5.0
2018-May-25 23:39N 46°55' W 124°11'1 9.2
2018-May-25 23:30N 46°55' W 124°12'5 9.6
2018-May-25 23:00N 46°55' W 124°20'510.0
2018-May-25 22:30N 46°57' W 124°27'510.3
2018-May-25 22:00N 46°58' W 124°34'510.2
2018-May-25 21:31N 46°60' W 124°41'18 1.5
2018-May-25 09:01N 47°13' W 124°59'0 2.3
2018-May-25 09:01N 47°13' W 124°59'1 1.1
2018-May-25 08:09N 47°14' W 124°59'0 1.0
2018-May-25 07:58N 47°14' W 124°59'19 3.2
2018-May-25 01:57N 46°55' W 124°59'7 9.2
2018-May-25 01:14N 46°49' W 124°55'2 9.3
2018-May-25 01:00N 46°47' W 124°54'5 9.4
2018-May-25 00:31N 46°43' W 124°50'6 9.4
2018-May-24 23:53N 46°38' W 124°46'3 7.5
2018-May-24 23:30N 46°35' W 124°44'1 1.5
2018-May-24 23:00N 46°36' W 124°44'1 2.2
2018-May-24 22:31N 46°37' W 124°44'2 3.4
2018-May-24 21:51N 46°39' W 124°46'1 3.3
2018-May-24 21:30N 46°39' W 124°47'2 3.5
2018-May-24 21:01N 46°41' W 124°48'2 3.4
2018-May-24 20:31N 46°42' W 124°50'3 3.8
2018-May-24 19:50N 46°44' W 124°52'1 2.5
2018-May-24 19:31N 46°44' W 124°51'1 2.3
2018-May-24 19:00N 46°43' W 124°51'1 3.0
2018-May-24 18:31N 46°42' W 124°50'1 3.0
2018-May-24 18:00N 46°41' W 124°48'2 3.1
2018-May-24 17:22N 46°39' W 124°47'1 3.1
2018-May-24 17:00N 46°39' W 124°45'2 3.4
2018-May-24 16:30N 46°37' W 124°44'3 6.1
2018-May-24 15:56N 46°40' W 124°47'3 6.2
2018-May-24 15:30N 46°42' W 124°44'6 9.7
2018-May-24 14:50N 46°43' W 124°35'310.1
2018-May-24 14:30N 46°45' W 124°32'5 9.9
2018-May-24 14:01N 46°48' W 124°26'510.1
2018-May-24 13:31N 46°51' W 124°20'10 0.8
2018-May-24 00:32N 46°55' W 124°06'3 8.5
2018-May-24 00:13N 46°55' W 124°10'2 8.7
2018-May-24 00:00N 46°55' W 124°13'5 9.6
2018-May-23 23:30N 46°55' W 124°20'4 7.9
2018-May-23 23:00N 46°56' W 124°26'510.3
2018-May-23 22:30N 46°57' W 124°33'5 9.4
2018-May-23 22:00N 46°58' W 124°40'5 9.6
2018-May-23 21:30N 46°59' W 124°47'610.1
2018-May-23 20:56N 47°00' W 124°55'4 4.9
2018-May-23 20:12N 47°02' W 124°60'1 1.9
2018-May-23 19:51N 47°02' W 124°60'2 1.2
2018-May-23 17:51N 46°60' W 125°01'2 3.5
2018-May-23 17:12N 46°58' W 125°00'1 2.9
2018-May-23 17:00N 46°57' W 124°60'3 1.2
2018-May-23 14:32N 47°00' W 125°00'0 3.4
2018-May-23 14:30N 46°60' W 125°00'2 3.1
2018-May-23 14:00N 46°58' W 125°00'1 2.0
2018-May-23 13:30N 46°57' W 125°00'3 1.1
2018-May-23 11:06N 46°60' W 125°01'0 4.0
2018-May-23 11:00N 46°60' W 125°01'1 2.0
2018-May-23 10:19N 46°58' W 125°00'1 1.1
2018-May-23 09:46N 46°59' W 125°00'0 1.1
2018-May-23 09:30N 46°59' W 125°00'1 1.0
2018-May-23 08:57N 46°60' W 125°01'0 0.6
2018-May-23 08:06N 47°00' W 125°00'1 8.2
2018-May-23 08:00N 46°60' W 124°59'4 8.2
2018-May-23 07:30N 46°58' W 124°53'4 8.1
2018-May-23 06:59N 46°57' W 124°48'4 8.0
2018-May-23 06:30N 46°55' W 124°42'4 7.9
2018-May-23 06:01N 46°54' W 124°37'5 8.0
2018-May-23 05:21N 46°52' W 124°30'3 7.8
2018-May-23 05:00N 46°51' W 124°27'4 7.4
2018-May-23 04:29N 46°50' W 124°21'4 9.3
2018-May-23 04:00N 46°53' W 124°18'4 7.6
2018-May-23 03:30N 46°55' W 124°12'4 6.7
2018-May-23 02:54N 46°55' W 124°06'0 0.6
2018-May-23 02:11N 46°54' W 124°06'0 0.0
2018-May-23 02:00N 46°54' W 124°06'0 0.0
2018-May-23 01:30N 46°54' W 124°06'0 0.0
2018-May-23 01:00N 46°54' W 124°06'0 0.0
2018-May-23 00:28N 46°54' W 124°06'0 0.0
2018-May-22 23:46N 46°54' W 124°06'0 0.0
2018-May-22 22:48N 46°54' W 124°06'0 0.0
2018-May-22 22:26N 46°54' W 124°06'0 0.0
2018-May-22 22:00N 46°54' W 124°06'0 0.0
2018-May-22 21:30N 46°54' W 124°06'0 0.0
2018-May-22 20:59N 46°54' W 124°06'0 0.0
2018-May-22 19:23N 46°54' W 124°06'1 2.6
2018-May-22 18:54N 46°55' W 124°08'3 7.7
2018-May-22 18:30N 46°55' W 124°13'5 8.5
2018-May-22 17:55N 46°54' W 124°20'4 9.6
2018-May-22 17:29N 46°53' W 124°26'510.0
2018-May-22 17:01N 46°53' W 124°33'5 9.9
2018-May-22 16:30N 46°52' W 124°40'510.0
2018-May-22 16:00N 46°51' W 124°48'610.1
2018-May-22 15:24N 46°50' W 124°56'1 1.9
2018-May-22 15:00N 46°51' W 124°56'1 2.5
2018-May-22 14:30N 46°52' W 124°56'2 3.3
2018-May-22 14:00N 46°54' W 124°54'3 3.7
2018-May-22 13:14N 46°55' W 124°51'2 6.3
2018-May-22 12:52N 46°54' W 124°54'3 7.6
2018-May-22 12:30N 46°53' W 124°58'4 8.2
2018-May-22 11:58N 46°57' W 124°59'2 5.2
2018-May-22 11:30N 46°55' W 124°58'5 5.2
2018-May-22 10:36N 46°59' W 124°59'1 6.7
2018-May-22 10:30N 46°60' W 124°59'3 6.2
2018-May-22 10:00N 47°03' W 124°59'3 6.5
2018-May-22 09:30N 47°06' W 125°00'11 6.7
2018-May-22 07:50N 47°17' W 125°03'2 6.6
2018-May-22 07:30N 47°19' W 125°04'61 3.1
2018-May-21 11:38N 48°20' W 124°54'110.3
2018-May-21 11:30N 48°21' W 124°52'510.3
2018-May-21 11:00N 48°24' W 124°47'5 9.6
2018-May-21 10:30N 48°24' W 124°39'1 2.0
2018-May-21 10:00N 48°25' W 124°41'4 7.9
2018-May-21 09:30N 48°24' W 124°47'510.1
2018-May-21 08:57N 48°19' W 124°51'80 2.7
2018-May-20 03:34N 46°59' W 124°59'2 8.6
2018-May-20 03:21N 46°58' W 124°59'3 8.2
2018-May-20 02:57N 46°54' W 124°58'3 6.8
2018-May-20 02:30N 46°51' W 124°57'2 3.5
2018-May-20 01:57N 46°49' W 124°57'2 3.8
2018-May-20 01:31N 46°48' W 124°56'1 2.1
2018-May-20 01:01N 46°47' W 124°55'1 2.6
2018-May-20 00:30N 46°46' W 124°53'1 2.7
2018-May-20 00:00N 46°45' W 124°52'1 2.5
2018-May-19 23:31N 46°46' W 124°52'1 1.1
2018-May-19 23:01N 46°46' W 124°53'2 3.2
2018-May-19 22:31N 46°45' W 124°51'2 3.2
2018-May-19 22:00N 46°44' W 124°49'2 3.8
2018-May-19 21:30N 46°42' W 124°48'2 4.6
2018-May-19 21:00N 46°40' W 124°46'4 7.3
2018-May-19 20:30N 46°38' W 124°43'0 0.8
2018-May-19 20:01N 46°38' W 124°43'0 0.7
2018-May-19 19:30N 46°37' W 124°43'0 0.7
2018-May-19 18:50N 46°38' W 124°44'0 0.6
2018-May-19 18:30N 46°38' W 124°44'1 1.5
2018-May-19 18:01N 46°38' W 124°45'0 0.9
2018-May-19 17:30N 46°38' W 124°45'2 3.9
2018-May-19 17:00N 46°40' W 124°47'2 3.3
2018-May-19 16:30N 46°39' W 124°45'2 4.0
2018-May-19 16:00N 46°38' W 124°42'3 4.7
2018-May-19 15:24N 46°39' W 124°46'2 4.9
2018-May-19 15:00N 46°41' W 124°48'3 6.1
2018-May-19 14:30N 46°43' W 124°50'2 4.0
2018-May-19 14:00N 46°42' W 124°48'3 5.6
2018-May-19 13:30N 46°39' W 124°47'2 4.2
2018-May-19 13:00N 46°37' W 124°45'2 3.3
2018-May-19 12:30N 46°36' W 124°44'1 2.1
2018-May-19 12:00N 46°35' W 124°45'1 2.5
2018-May-19 11:30N 46°34' W 124°46'1 1.2
2018-May-19 11:00N 46°35' W 124°46'1 1.1
2018-May-19 10:31N 46°35' W 124°45'1 1.1
2018-May-19 10:00N 46°36' W 124°45'1 1.2
2018-May-19 09:31N 46°36' W 124°45'1 1.1
2018-May-19 09:00N 46°37' W 124°45'1 1.1
2018-May-19 08:31N 46°37' W 124°45'1 1.1
2018-May-19 08:01N 46°38' W 124°45'1 1.0
2018-May-19 07:30N 46°39' W 124°45'5 7.1
2018-May-19 06:50N 46°34' W 124°45'1 3.3
2018-May-19 06:30N 46°33' W 124°44'2 3.1
2018-May-19 06:00N 46°31' W 124°43'1 1.3
2018-May-19 05:30N 46°31' W 124°43'1 2.9
2018-May-19 05:00N 46°29' W 124°43'1 2.3
2018-May-19 04:30N 46°30' W 124°43'2 3.1
2018-May-19 03:44N 46°33' W 124°44'1 3.1
2018-May-19 03:31N 46°34' W 124°44'2 3.1
2018-May-19 03:00N 46°35' W 124°45'2 3.1
2018-May-19 02:31N 46°37' W 124°45'2 3.2
2018-May-19 01:52N 46°38' W 124°46'2 2.9
2018-May-19 01:12N 46°40' W 124°47'1 3.1
2018-May-19 01:00N 46°41' W 124°48'  

Dump ship's entire track history